Time;durP1;ratioP1;P1;durP2;ratioP2;P2;SDS_P1;SDS_P2;PMS_P1;PMS_P2;Temp;Humidity;BMP_temperature;BMP_pressure;BME280_temperature;BME280_humidity;BME280_pressure;Samples;Min_cycle;Max_cycle;Signal;HPM_P1;HPM_P2
2022/09/09 00:01:41;;;;;;;3.03;1.90;;;;;;;;;;5050506;28;20174;-72
2022/09/09 00:04:25;;;;;;;2.33;1.77;;;;;;;;;;5049107;28;20674;-71
2022/09/09 00:06:50;;;;;;;3.08;1.58;;;;;;;;;;5051053;28;20173;-72
2022/09/09 00:09:16;;;;;;;1.73;1.50;;;;;;;;;;5050668;28;20209;-72
2022/09/09 00:11:51;;;;;;;4.88;2.75;;;;;;;;;;5050634;28;20414;-71
2022/09/09 00:14:22;;;;;;;4.47;1.90;;;;;;;;;;5050634;28;20646;-71
2022/09/09 00:16:50;;;;;;;3.47;1.70;;;;;;;;;;5042722;28;20235;-71
2022/09/09 00:19:20;;;;;;;2.50;1.60;;;;;;;;;;5051622;28;20628;-71
2022/09/09 00:22:15;;;;;;;2.53;1.60;;;;;;;;;;5047733;28;20231;-72
2022/09/09 00:24:52;;;;;;;3.15;1.30;;;;;;;;;;5042208;28;20207;-72
2022/09/09 00:27:20;;;;;;;2.88;1.80;;;;;;;;;;5057652;28;20184;-72
2022/09/09 00:29:49;;;;;;;4.50;2.03;;;;;;;;;;5054918;28;20211;-71
2022/09/09 00:32:18;;;;;;;3.15;1.80;;;;;;;;;;5054686;28;20185;-70
2022/09/09 00:35:05;;;;;;;3.65;1.77;;;;;;;;;;5040400;28;20230;-72
2022/09/09 00:37:31;;;;;;;2.72;1.42;;;;;;;;;;5048741;28;20184;-71
2022/09/09 00:39:59;;;;;;;3.42;1.90;;;;;;;;;;5037450;28;20210;-71
2022/09/09 00:42:26;;;;;;;4.53;2.28;;;;;;;;;;5048863;28;20184;-71
2022/09/09 00:44:55;;;;;;;2.97;2.40;;;;;;;;;;5055081;28;20174;-72
2022/09/09 00:47:20;;;;;;;5.65;2.03;;;;;;;;;;5050574;28;20220;-71
2022/09/09 00:49:48;;;;;;;5.40;2.35;;;;;;;;;;5054741;28;20221;-72
2022/09/09 00:52:34;;;;;;;3.58;2.40;;;;;;;;;;5054034;28;20639;-71
2022/09/09 00:54:59;;;;;;;3.85;1.98;;;;;;;;;;5044715;28;20202;-71
2022/09/09 00:57:32;;;;;;;3.90;2.10;;;;;;;;;;5050034;28;20304;-71
2022/09/09 00:59:59;;;;;;;4.35;2.17;;;;;;;;;;5050753;28;20891;-71
2022/09/09 01:02:28;;;;;;;2.88;2.05;;;;;;;;;;5051677;28;20268;-72
2022/09/09 01:04:54;;;;;;;4.20;2.47;;;;;;;;;;5054960;28;20174;-72
2022/09/09 01:07:19;;;;;;;5.10;2.70;;;;;;;;;;5052174;28;20185;-71
2022/09/09 01:09:51;;;;;;;6.07;2.70;;;;;;;;;;5055009;28;20753;-71
2022/09/09 01:12:23;;;;;;;4.75;3.00;;;;;;;;;;5052681;28;20547;-71
2022/09/09 01:14:51;;;;;;;4.40;2.47;;;;;;;;;;5056308;28;20648;-72
2022/09/09 01:17:20;;;;;;;3.60;2.90;;;;;;;;;;5049783;28;20267;-72
2022/09/09 01:19:46;;;;;;;4.05;2.75;;;;;;;;;;5054117;28;20213;-71
2022/09/09 01:22:11;;;;;;;5.07;2.83;;;;;;;;;;5051442;28;20181;-72
2022/09/09 01:24:43;;;;;;;3.92;2.72;;;;;;;;;;5049650;28;20288;-71
2022/09/09 01:27:10;;;;;;;4.50;2.88;;;;;;;;;;5053560;28;20796;-71
2022/09/09 01:29:35;;;;;;;8.80;4.55;;;;;;;;;;5055412;28;20204;-71
2022/09/09 01:32:21;;;;;;;4.15;3.40;;;;;;;;;;5055542;28;20193;-71
2022/09/09 01:34:46;;;;;;;5.30;3.40;;;;;;;;;;5041346;28;20642;-71
2022/09/09 01:37:12;;;;;;;5.07;3.55;;;;;;;;;;5051753;28;20200;-70
2022/09/09 01:39:38;;;;;;;5.20;3.60;;;;;;;;;;5051672;28;20868;-71
2022/09/09 01:42:04;;;;;;;4.25;3.20;;;;;;;;;;5044685;28;20197;-70
2022/09/09 01:44:30;;;;;;;4.25;3.28;;;;;;;;;;5044601;28;20644;-70
2022/09/09 01:46:55;;;;;;;5.82;3.90;;;;;;;;;;5052782;28;20444;-71
2022/09/09 01:49:20;;;;;;;7.30;4.28;;;;;;;;;;5051740;28;20205;-71
2022/09/09 01:51:49;;;;;;;5.80;3.75;;;;;;;;;;5051269;28;20181;-71
2022/09/09 01:54:14;;;;;;;7.22;3.85;;;;;;;;;;5049214;28;20537;-71
2022/09/09 01:56:39;;;;;;;5.55;4.50;;;;;;;;;;5052548;28;20261;-71
2022/09/09 01:59:13;;;;;;;5.78;4.15;;;;;;;;;;5051596;28;20234;-72
2022/09/09 02:01:38;;;;;;;8.82;4.88;;;;;;;;;;5044353;28;20986;-72
2022/09/09 02:04:08;;;;;;;8.02;4.43;;;;;;;;;;5053574;28;20209;-71
2022/09/09 02:06:34;;;;;;;6.78;4.78;;;;;;;;;;5051511;28;20415;-71
2022/09/09 02:09:02;;;;;;;6.88;4.60;;;;;;;;;;5053432;28;20209;-71
2022/09/09 02:11:28;;;;;;;8.57;5.15;;;;;;;;;;5052009;28;20181;-72
2022/09/09 02:13:56;;;;;;;8.20;5.00;;;;;;;;;;5052013;28;20178;-72
2022/09/09 02:16:27;;;;;;;6.35;4.90;;;;;;;;;;5051000;28;20258;-72
2022/09/09 02:19:01;;;;;;;5.63;4.63;;;;;;;;;;5051135;28;20205;-72
2022/09/09 02:21:28;;;;;;;6.43;4.32;;;;;;;;;;5052003;28;20711;-72
2022/09/09 02:23:56;;;;;;;10.95;6.03;;;;;;;;;;5052173;28;20181;-72
2022/09/09 02:26:23;;;;;;;6.22;4.40;;;;;;;;;;5050436;28;20184;-71
2022/09/09 02:28:49;;;;;;;5.53;4.55;;;;;;;;;;5050783;28;20263;-72
2022/09/09 02:31:17;;;;;;;10.63;5.10;;;;;;;;;;5051369;28;20209;-72
2022/09/09 02:33:46;;;;;;;7.72;4.03;;;;;;;;;;5052823;28;20243;-72
2022/09/09 02:36:16;;;;;;;5.97;4.35;;;;;;;;;;5049053;28;20177;-72
2022/09/09 02:38:45;;;;;;;8.35;4.45;;;;;;;;;;5050980;28;20229;-72
2022/09/09 02:41:10;;;;;;;7.95;4.40;;;;;;;;;;5049802;28;20174;-72
2022/09/09 02:43:37;;;;;;;6.32;4.32;;;;;;;;;;5049855;28;20673;-71
2022/09/09 02:46:08;;;;;;;5.65;4.55;;;;;;;;;;5045924;28;20176;-71
2022/09/09 02:48:45;;;;;;;6.53;4.45;;;;;;;;;;5045024;28;20647;-72
2022/09/09 02:51:17;;;;;;;6.63;4.68;;;;;;;;;;5049330;28;20185;-72
2022/09/09 02:53:54;;;;;;;6.30;4.22;;;;;;;;;;5047966;28;20170;-72
2022/09/09 02:56:21;;;;;;;7.13;4.25;;;;;;;;;;5049849;28;20177;-72
2022/09/09 02:58:46;;;;;;;5.80;4.03;;;;;;;;;;5051370;28;20259;-72
2022/09/09 03:01:12;;;;;;;5.80;4.22;;;;;;;;;;5049504;28;20706;-71
2022/09/09 03:03:37;;;;;;;6.07;3.67;;;;;;;;;;5051833;28;20260;-72
2022/09/09 03:06:03;;;;;;;5.20;3.70;;;;;;;;;;5051116;28;20216;-70
2022/09/09 03:08:28;;;;;;;6.22;4.20;;;;;;;;;;5047814;28;20278;-71
2022/09/09 03:10:54;;;;;;;4.85;3.47;;;;;;;;;;5065521;28;20298;-71
2022/09/09 03:13:19;;;;;;;8.93;4.57;;;;;;;;;;5049254;28;20339;-72
2022/09/09 03:15:45;;;;;;;6.45;4.30;;;;;;;;;;5050035;28;20174;-71
2022/09/09 03:18:10;;;;;;;5.38;4.30;;;;;;;;;;5050241;28;20678;-72
2022/09/09 03:20:35;;;;;;;6.30;3.95;;;;;;;;;;5050869;28;20217;-71
2022/09/09 03:23:00;;;;;;;7.75;4.03;;;;;;;;;;5049358;28;20176;-71
2022/09/09 03:25:26;;;;;;;6.75;3.45;;;;;;;;;;5048307;28;20170;-72
2022/09/09 03:27:54;;;;;;;5.13;3.72;;;;;;;;;;5048417;28;20177;-72
2022/09/09 03:30:19;;;;;;;5.35;3.63;;;;;;;;;;5050570;28;20276;-72
2022/09/09 03:32:44;;;;;;;4.30;3.42;;;;;;;;;;5050543;28;20273;-72
2022/09/09 03:35:09;;;;;;;8.02;3.97;;;;;;;;;;5048599;28;20181;-74
2022/09/09 03:37:34;;;;;;;7.00;3.75;;;;;;;;;;5049269;28;20675;-72
2022/09/09 03:40:00;;;;;;;4.38;3.40;;;;;;;;;;5050421;28;20240;-72
2022/09/09 03:42:25;;;;;;;7.20;3.92;;;;;;;;;;5050191;28;20247;-72
2022/09/09 03:44:51;;;;;;;6.47;3.63;;;;;;;;;;5049986;28;20177;-72
2022/09/09 03:47:18;;;;;;;5.00;3.45;;;;;;;;;;5043481;28;20272;-72
2022/09/09 03:49:43;;;;;;;9.77;4.60;;;;;;;;;;5043010;28;20205;-71
2022/09/09 03:52:08;;;;;;;8.27;3.60;;;;;;;;;;5049689;28;20550;-71
2022/09/09 03:54:33;;;;;;;5.25;3.75;;;;;;;;;;5048260;28;20209;-72
2022/09/09 03:56:59;;;;;;;6.55;4.38;;;;;;;;;;5049268;28;20188;-71
2022/09/09 03:59:25;;;;;;;5.25;4.28;;;;;;;;;;5048219;28;20557;-72
2022/09/09 04:01:50;;;;;;;6.38;3.67;;;;;;;;;;5048762;28;20174;-72
2022/09/09 04:04:16;;;;;;;5.68;4.10;;;;;;;;;;5051128;28;20719;-71
2022/09/09 04:06:41;;;;;;;7.53;4.10;;;;;;;;;;5048620;28;20170;-71
2022/09/09 04:09:06;;;;;;;6.32;4.63;;;;;;;;;;5050040;28;20292;-71
2022/09/09 04:11:31;;;;;;;6.70;3.90;;;;;;;;;;5052777;28;20657;-71
2022/09/09 04:13:56;;;;;;;4.93;3.80;;;;;;;;;;5050250;28;20174;-71
2022/09/09 04:16:22;;;;;;;7.22;4.78;;;;;;;;;;5049195;28;20183;-71
2022/09/09 04:18:47;;;;;;;7.80;4.10;;;;;;;;;;5045599;28;20208;-72
2022/09/09 04:21:12;;;;;;;5.38;4.35;;;;;;;;;;5052366;28;20188;-72
2022/09/09 04:23:38;;;;;;;4.72;3.65;;;;;;;;;;5049232;28;20449;-72
2022/09/09 04:26:03;;;;;;;4.75;3.92;;;;;;;;;;5049405;28;20178;-72
2022/09/09 04:28:30;;;;;;;6.32;3.63;;;;;;;;;;5063687;28;20182;-71
2022/09/09 04:30:56;;;;;;;7.00;3.92;;;;;;;;;;5040157;28;20182;-72
2022/09/09 04:33:23;;;;;;;5.75;4.15;;;;;;;;;;5045512;28;20167;-72
2022/09/09 04:35:49;;;;;;;7.15;4.68;;;;;;;;;;5050162;28;20177;-72
2022/09/09 04:38:15;;;;;;;5.00;3.80;;;;;;;;;;5047724;28;20181;-72
2022/09/09 04:40:46;;;;;;;4.70;4.10;;;;;;;;;;5050094;28;20210;-70
2022/09/09 04:43:11;;;;;;;8.40;4.18;;;;;;;;;;5049048;28;20247;-72
2022/09/09 04:45:37;;;;;;;9.18;4.55;;;;;;;;;;5050241;28;20691;-72
2022/09/09 04:48:02;;;;;;;8.15;4.75;;;;;;;;;;5047416;28;20230;-72
2022/09/09 04:50:28;;;;;;;8.70;4.78;;;;;;;;;;5048906;28;20682;-72
2022/09/09 04:52:53;;;;;;;6.47;4.25;;;;;;;;;;5047484;28;20180;-72
2022/09/09 04:55:18;;;;;;;6.97;4.75;;;;;;;;;;5049750;28;20671;-72
2022/09/09 04:57:43;;;;;;;4.80;4.03;;;;;;;;;;5048127;28;20185;-72
2022/09/09 05:00:10;;;;;;;6.15;4.28;;;;;;;;;;5047730;28;20212;-71
2022/09/09 05:02:38;;;;;;;7.38;4.35;;;;;;;;;;5047705;28;20553;-72
2022/09/09 05:05:03;;;;;;;6.72;3.92;;;;;;;;;;5049541;28;20239;-72
2022/09/09 05:07:31;;;;;;;5.05;3.88;;;;;;;;;;5046983;28;20275;-72
2022/09/09 05:09:56;;;;;;;5.82;3.50;;;;;;;;;;5049748;28;20236;-72
2022/09/09 05:12:23;;;;;;;4.70;3.83;;;;;;;;;;5051008;28;20654;-71
2022/09/09 05:14:50;;;;;;;6.45;4.35;;;;;;;;;;5053498;28;20620;-72
2022/09/09 05:17:16;;;;;;;6.32;3.85;;;;;;;;;;5050187;28;20587;-71
2022/09/09 05:19:41;;;;;;;7.65;3.83;;;;;;;;;;5050541;28;20740;-71
2022/09/09 05:22:07;;;;;;;4.90;3.35;;;;;;;;;;5052126;28;20190;-72
2022/09/09 05:24:33;;;;;;;5.07;3.45;;;;;;;;;;5052969;28;20174;-71
2022/09/09 05:26:59;;;;;;;5.97;3.38;;;;;;;;;;5052497;28;20597;-72
2022/09/09 05:29:26;;;;;;;7.10;3.63;;;;;;;;;;5053831;28;20291;-72
2022/09/09 05:31:51;;;;;;;5.05;3.08;;;;;;;;;;5041239;28;20324;-72
2022/09/09 05:34:16;;;;;;;8.07;3.47;;;;;;;;;;5049576;28;20617;-70
2022/09/09 05:36:42;;;;;;;6.10;3.42;;;;;;;;;;5051011;28;20462;-72
2022/09/09 05:39:07;;;;;;;5.38;2.95;;;;;;;;;;5050825;28;20213;-71
2022/09/09 05:41:32;;;;;;;6.97;3.83;;;;;;;;;;5049874;28;20562;-72
2022/09/09 05:44:00;;;;;;;5.30;3.30;;;;;;;;;;5051710;28;20178;-72
2022/09/09 05:46:26;;;;;;;6.38;3.47;;;;;;;;;;5050900;28;20224;-72
2022/09/09 05:48:51;;;;;;;6.68;2.90;;;;;;;;;;5049555;28;20194;-71
2022/09/09 05:51:18;;;;;;;7.32;3.63;;;;;;;;;;5053202;28;20173;-72
2022/09/09 05:53:44;;;;;;;6.00;3.33;;;;;;;;;;5049281;28;20243;-72
2022/09/09 05:56:14;;;;;;;7.35;3.50;;;;;;;;;;5051813;28;20635;-72
2022/09/09 05:58:39;;;;;;;4.45;3.13;;;;;;;;;;5051819;28;20243;-72
2022/09/09 06:01:06;;;;;;;6.45;3.13;;;;;;;;;;5044845;28;20181;-72
2022/09/09 06:03:32;;;;;;;5.07;3.53;;;;;;;;;;5047268;28;20667;-72
2022/09/09 06:05:58;;;;;;;6.18;3.95;;;;;;;;;;5048346;28;20189;-71
2022/09/09 06:08:24;;;;;;;5.40;2.92;;;;;;;;;;5052523;28;20173;-72
2022/09/09 06:10:49;;;;;;;5.15;3.20;;;;;;;;;;5051167;28;20580;-71
2022/09/09 06:13:14;;;;;;;7.15;3.40;;;;;;;;;;5052470;28;20185;-71
2022/09/09 06:15:40;;;;;;;5.55;3.13;;;;;;;;;;5051689;28;20236;-71
2022/09/09 06:18:05;;;;;;;5.57;3.20;;;;;;;;;;5050946;28;20260;-72
2022/09/09 06:20:31;;;;;;;4.47;2.85;;;;;;;;;;5048599;28;20232;-71
2022/09/09 06:22:57;;;;;;;10.45;2.80;;;;;;;;;;5051311;28;20174;-72
2022/09/09 06:25:22;;;;;;;8.68;3.83;;;;;;;;;;5051251;28;20182;-71
2022/09/09 06:27:50;;;;;;;3.97;2.97;;;;;;;;;;5051759;28;20198;-71
2022/09/09 06:30:17;;;;;;;4.10;2.78;;;;;;;;;;5050652;28;20295;-71
2022/09/09 06:32:42;;;;;;;5.22;2.75;;;;;;;;;;5051294;28;20177;-71
2022/09/09 06:35:07;;;;;;;5.78;2.72;;;;;;;;;;5049455;28;20184;-71
2022/09/09 06:37:33;;;;;;;5.82;3.08;;;;;;;;;;5052361;28;20174;-71
2022/09/09 06:39:58;;;;;;;5.93;2.38;;;;;;;;;;5046595;28;20607;-72
2022/09/09 06:42:23;;;;;;;5.63;2.35;;;;;;;;;;5046869;28;20524;-72
2022/09/09 06:44:48;;;;;;;10.73;3.17;;;;;;;;;;5050847;28;20243;-72
2022/09/09 06:47:13;;;;;;;5.33;2.73;;;;;;;;;;5049710;28;20463;-71
2022/09/09 06:49:39;;;;;;;3.13;2.13;;;;;;;;;;5050759;28;20480;-72
2022/09/09 06:52:04;;;;;;;7.53;2.20;;;;;;;;;;5049037;28;20182;-70
2022/09/09 06:54:29;;;;;;;5.50;1.90;;;;;;;;;;5049209;28;20188;-72
2022/09/09 06:56:54;;;;;;;5.70;1.83;;;;;;;;;;5050621;28;20181;-72
2022/09/09 06:59:19;;;;;;;5.87;2.10;;;;;;;;;;5049506;28;20214;-72
2022/09/09 07:01:45;;;;;;;6.95;2.33;;;;;;;;;;5038648;28;20963;-72
2022/09/09 07:04:10;;;;;;;5.38;2.25;;;;;;;;;;5044790;28;20230;-71
2022/09/09 07:06:43;;;;;;;6.25;2.17;;;;;;;;;;5041368;28;20182;-72
2022/09/09 07:09:10;;;;;;;3.00;1.70;;;;;;;;;;5043274;28;20215;-72
2022/09/09 07:11:42;;;;;;;7.03;2.15;;;;;;;;;;5045716;28;20551;-72
2022/09/09 07:14:08;;;;;;;7.72;1.92;;;;;;;;;;5043591;28;20200;-71
2022/09/09 07:16:36;;;;;;;6.43;2.45;;;;;;;;;;5044204;28;20652;-71
2022/09/09 07:19:02;;;;;;;10.68;2.30;;;;;;;;;;5047677;28;20216;-71
2022/09/09 07:21:28;;;;;;;3.10;1.60;;;;;;;;;;5065567;28;20177;-71
2022/09/09 07:23:54;;;;;;;5.63;2.00;;;;;;;;;;5050300;28;20191;-71
2022/09/09 07:26:20;;;;;;;7.22;1.90;;;;;;;;;;5048760;28;20644;-71
2022/09/09 07:28:46;;;;;;;4.40;1.60;;;;;;;;;;5042973;28;20660;-71
2022/09/09 07:31:16;;;;;;;7.20;1.90;;;;;;;;;;5046868;28;20212;-71
2022/09/09 07:33:41;;;;;;;3.45;1.63;;;;;;;;;;5043866;28;20185;-71
2022/09/09 07:36:08;;;;;;;6.63;2.10;;;;;;;;;;5045696;28;20178;-72
2022/09/09 07:38:40;;;;;;;3.08;1.98;;;;;;;;;;5044904;28;20646;-71
2022/09/09 07:41:08;;;;;;;7.68;2.00;;;;;;;;;;5048942;28;20432;-71
2022/09/09 07:43:33;;;;;;;7.75;2.15;;;;;;;;;;5040144;28;20166;-71
2022/09/09 07:46:01;;;;;;;5.93;2.17;;;;;;;;;;5050098;28;20268;-71
2022/09/09 07:48:26;;;;;;;8.57;3.00;;;;;;;;;;5049722;28;20166;-70
2022/09/09 07:50:51;;;;;;;5.57;2.42;;;;;;;;;;5049883;28;20212;-71
2022/09/09 07:53:16;;;;;;;3.50;2.17;;;;;;;;;;5050379;28;20178;-71
2022/09/09 07:55:42;;;;;;;3.10;2.50;;;;;;;;;;5048024;28;20927;-71
2022/09/09 07:58:07;;;;;;;3.88;2.13;;;;;;;;;;5043447;28;20486;-71
2022/09/09 08:00:33;;;;;;;4.77;2.03;;;;;;;;;;5048063;28;20740;-71
2022/09/09 08:02:59;;;;;;;5.43;2.10;;;;;;;;;;5047959;28;20628;-71
2022/09/09 08:05:24;;;;;;;6.00;2.00;;;;;;;;;;5049616;28;20169;-71
2022/09/09 08:07:50;;;;;;;6.20;2.22;;;;;;;;;;5053096;28;20540;-71
2022/09/09 08:10:15;;;;;;;4.93;1.90;;;;;;;;;;5048321;28;20292;-71
2022/09/09 08:12:41;;;;;;;3.78;1.83;;;;;;;;;;5046900;28;20686;-71
2022/09/09 08:15:06;;;;;;;4.88;1.77;;;;;;;;;;5046975;28;20268;-71
2022/09/09 08:17:31;;;;;;;5.22;2.08;;;;;;;;;;5049687;28;20188;-71
2022/09/09 08:19:56;;;;;;;6.17;2.27;;;;;;;;;;5049942;28;20623;-71
2022/09/09 08:22:21;;;;;;;5.93;2.30;;;;;;;;;;5052151;28;20422;-71
2022/09/09 08:24:47;;;;;;;4.57;1.70;;;;;;;;;;5049904;28;20417;-71
2022/09/09 08:27:12;;;;;;;5.35;3.15;;;;;;;;;;5049485;28;20174;-71
2022/09/09 08:29:37;;;;;;;7.30;2.10;;;;;;;;;;5050479;28;20653;-71
2022/09/09 08:32:03;;;;;;;5.60;2.10;;;;;;;;;;5049172;28;20643;-71
2022/09/09 08:34:30;;;;;;;6.40;2.08;;;;;;;;;;5046684;28;20423;-71
2022/09/09 08:36:55;;;;;;;6.97;1.83;;;;;;;;;;5046407;28;20232;-70
2022/09/09 08:39:21;;;;;;;3.95;1.70;;;;;;;;;;5048483;28;20244;-70
2022/09/09 08:42:00;;;;;;;10.80;3.28;;;;;;;;;;5046636;28;20170;-71
2022/09/09 08:44:31;;;;;;;5.53;1.77;;;;;;;;;;5048108;28;20177;-69
2022/09/09 08:47:11;;;;;;;3.55;1.90;;;;;;;;;;5043883;28;20176;-70
2022/09/09 08:49:42;;;;;;;4.72;1.88;;;;;;;;;;5051033;28;20251;-70
2022/09/09 08:52:15;;;;;;;4.68;1.90;;;;;;;;;;5051177;28;20193;-70
2022/09/09 08:54:41;;;;;;;5.47;2.33;;;;;;;;;;5051482;28;20654;-71
2022/09/09 08:57:11;;;;;;;5.07;2.10;;;;;;;;;;5053599;28;20189;-70
2022/09/09 08:59:37;;;;;;;7.70;3.13;;;;;;;;;;5052640;28;20559;-71
2022/09/09 09:02:11;;;;;;;2.70;1.80;;;;;;;;;;5050443;28;20257;-71
2022/09/09 09:04:52;;;;;;;7.35;2.60;;;;;;;;;;5049365;28;20206;-71
2022/09/09 09:07:17;;;;;;;5.50;1.83;;;;;;;;;;5050376;28;20181;-71
2022/09/09 09:09:49;;;;;;;3.47;1.70;;;;;;;;;;5051275;28;20271;-71
2022/09/09 09:12:22;;;;;;;5.55;1.70;;;;;;;;;;5054271;28;20655;-71
2022/09/09 09:14:48;;;;;;;3.83;1.65;;;;;;;;;;5046683;28;20194;-71
2022/09/09 09:17:21;;;;;;;5.30;2.30;;;;;;;;;;5055526;28;20203;-70
2022/09/09 09:19:47;;;;;;;3.85;1.80;;;;;;;;;;5048418;28;20245;-71
2022/09/09 09:22:26;;;;;;;5.78;1.63;;;;;;;;;;5048737;28;20550;-71
2022/09/09 09:24:51;;;;;;;4.80;1.90;;;;;;;;;;5051007;28;20197;-72
2022/09/09 09:27:25;;;;;;;5.22;2.10;;;;;;;;;;5051272;28;20568;-72
2022/09/09 09:29:52;;;;;;;7.60;1.98;;;;;;;;;;5048391;28;21383;-71
2022/09/09 09:32:18;;;;;;;3.83;2.10;;;;;;;;;;5050714;28;20170;-71
2022/09/09 09:34:48;;;;;;;5.95;2.35;;;;;;;;;;5049456;28;20188;-71
2022/09/09 09:37:20;;;;;;;5.38;1.88;;;;;;;;;;5051680;28;20224;-71
2022/09/09 09:39:46;;;;;;;9.07;2.75;;;;;;;;;;5047450;28;20206;-71
2022/09/09 09:42:13;;;;;;;4.82;2.10;;;;;;;;;;5050957;28;20184;-70
2022/09/09 09:44:39;;;;;;;6.20;2.15;;;;;;;;;;5050164;28;20228;-71
2022/09/09 09:47:06;;;;;;;4.07;2.30;;;;;;;;;;5052551;28;20235;-71
2022/09/09 09:49:32;;;;;;;5.30;2.00;;;;;;;;;;5051311;28;20212;-71
2022/09/09 09:52:00;;;;;;;4.38;1.98;;;;;;;;;;5050144;28;20332;-70
2022/09/09 09:54:29;;;;;;;6.72;1.70;;;;;;;;;;5048331;28;20188;-71
2022/09/09 09:56:55;;;;;;;5.10;2.03;;;;;;;;;;5049535;28;20624;-71
2022/09/09 09:59:34;;;;;;;4.40;1.70;;;;;;;;;;5045980;28;20241;-70
2022/09/09 10:02:26;;;;;;;6.65;2.00;;;;;;;;;;5046852;28;20185;-72
2022/09/09 10:05:11;;;;;;;4.70;1.73;;;;;;;;;;5043634;28;20190;-73
2022/09/09 10:07:37;;;;;;;6.82;1.80;;;;;;;;;;5049991;28;20585;-72
2022/09/09 10:10:02;;;;;;;8.30;2.22;;;;;;;;;;5048850;28;20213;-72
2022/09/09 10:12:37;;;;;;;7.57;2.47;;;;;;;;;;5049920;28;20712;-72
2022/09/09 10:15:13;;;;;;;4.93;2.30;;;;;;;;;;5050001;28;20182;-72
2022/09/09 10:17:41;;;;;;;2.83;1.98;;;;;;;;;;5048912;28;20169;-71
2022/09/09 10:20:12;;;;;;;3.97;1.88;;;;;;;;;;5051196;28;20205;-72
2022/09/09 10:22:40;;;;;;;6.07;1.92;;;;;;;;;;5046905;28;20182;-72
2022/09/09 10:25:26;;;;;;;3.28;1.80;;;;;;;;;;5048225;28;20264;-72
2022/09/09 10:28:27;;;;;;;4.82;2.00;;;;;;;;;;5043113;28;20548;-72
2022/09/09 10:30:59;;;;;;;8.88;2.30;;;;;;;;;;5048207;28;20200;-71
2022/09/09 10:33:43;;;;;;;7.60;2.00;;;;;;;;;;5049737;28;20309;-71
2022/09/09 10:36:21;;;;;;;20.08;3.15;;;;;;;;;;5049691;28;20177;-72
2022/09/09 10:39:02;;;;;;;5.28;1.80;;;;;;;;;;5047665;28;20263;-72
2022/09/09 10:41:46;;;;;;;11.82;2.85;;;;;;;;;;5048793;28;20553;-72
2022/09/09 10:44:22;;;;;;;3.25;1.30;;;;;;;;;;5052450;28;20651;-71
2022/09/09 10:46:53;;;;;;;4.43;2.00;;;;;;;;;;5051433;28;20566;-71
2022/09/09 10:49:19;;;;;;;3.42;1.40;;;;;;;;;;5051055;28;20197;-72
2022/09/09 10:51:57;;;;;;;4.32;1.50;;;;;;;;;;5050971;28;20204;-69
2022/09/09 10:54:34;;;;;;;5.30;1.67;;;;;;;;;;5051212;28;20491;-69
2022/09/09 10:57:10;;;;;;;3.80;1.75;;;;;;;;;;5044640;28;20586;-72
2022/09/09 10:59:43;;;;;;;2.88;1.50;;;;;;;;;;5050478;28;20250;-70
2022/09/09 11:02:10;;;;;;;7.05;2.33;;;;;;;;;;5050570;28;20181;-71
2022/09/09 11:04:42;;;;;;;5.63;1.63;;;;;;;;;;5042914;28;20170;-72
2022/09/09 11:07:10;;;;;;;4.43;1.80;;;;;;;;;;5050616;28;20178;-72
2022/09/09 11:09:38;;;;;;;5.85;1.52;;;;;;;;;;5052303;28;20304;-74
2022/09/09 11:12:03;;;;;;;2.85;1.48;;;;;;;;;;5050723;28;20674;-74
2022/09/09 11:14:31;;;;;;;2.92;1.80;;;;;;;;;;5048652;28;20185;-74
2022/09/09 11:17:00;;;;;;;3.45;1.67;;;;;;;;;;5051438;28;20260;-74
2022/09/09 11:19:35;;;;;;;4.72;2.05;;;;;;;;;;5049676;28;20296;-74
2022/09/09 11:22:20;;;;;;;7.70;3.13;;;;;;;;;;5050588;28;20263;-74
2022/09/09 11:25:00;;;;;;;5.03;1.75;;;;;;;;;;5033626;28;20208;-74
2022/09/09 11:27:30;;;;;;;3.92;1.83;;;;;;;;;;5048104;28;20189;-73
2022/09/09 11:30:16;;;;;;;3.58;1.60;;;;;;;;;;5042465;28;20726;-75
2022/09/09 11:33:05;;;;;;;2.28;1.52;;;;;;;;;;5046896;28;20180;-74
2022/09/09 11:35:33;;;;;;;3.22;1.70;;;;;;;;;;5046851;28;20255;-74
2022/09/09 11:38:16;;;;;;;3.30;1.52;;;;;;;;;;5045109;28;20357;-75
2022/09/09 11:40:41;;;;;;;5.13;2.00;;;;;;;;;;5050275;28;20219;-74
2022/09/09 11:43:09;;;;;;;3.35;1.75;;;;;;;;;;5045721;28;20606;-74
2022/09/09 11:45:35;;;;;;;5.35;2.40;;;;;;;;;;5047857;28;20189;-74
2022/09/09 11:48:01;;;;;;;2.30;2.03;;;;;;;;;;5049723;28;20235;-73
2022/09/09 11:50:30;;;;;;;3.35;2.10;;;;;;;;;;5052002;28;20620;-73
2022/09/09 11:53:14;;;;;;;3.17;1.90;;;;;;;;;;5051998;28;20212;-74
2022/09/09 11:55:40;;;;;;;4.68;1.85;;;;;;;;;;5047009;28;20200;-73
2022/09/09 11:58:06;;;;;;;3.22;1.67;;;;;;;;;;5047454;28;20181;-74
2022/09/09 12:00:40;;;;;;;3.85;2.00;;;;;;;;;;5044477;28;20212;-74
2022/09/09 12:03:05;;;;;;;4.32;2.15;;;;;;;;;;5050711;28;20227;-73
2022/09/09 12:05:42;;;;;;;3.75;1.77;;;;;;;;;;5040710;28;20212;-74
2022/09/09 12:08:10;;;;;;;4.60;1.98;;;;;;;;;;5051948;28;20251;-74
2022/09/09 12:10:38;;;;;;;5.70;1.65;;;;;;;;;;5045138;28;20227;-74
2022/09/09 12:13:16;;;;;;;3.20;1.77;;;;;;;;;;5050215;28;20169;-74
2022/09/09 12:15:49;;;;;;;3.00;1.80;;;;;;;;;;5048817;28;20212;-75
2022/09/09 12:18:22;;;;;;;4.57;2.60;;;;;;;;;;5050216;28;20213;-74
2022/09/09 12:21:10;;;;;;;5.43;1.90;;;;;;;;;;5041402;28;20300;-74
2022/09/09 12:23:42;;;;;;;3.00;1.80;;;;;;;;;;5044245;28;20647;-74
2022/09/09 12:26:29;;;;;;;4.07;1.73;;;;;;;;;;5046496;28;20266;-74
2022/09/09 12:29:00;;;;;;;2.67;1.70;;;;;;;;;;5047273;28;20217;-74
2022/09/09 12:31:56;;;;;;;2.67;1.60;;;;;;;;;;5044885;28;20214;-74
2022/09/09 12:34:38;;;;;;;3.35;1.88;;;;;;;;;;5031801;28;20217;-73
2022/09/09 12:37:18;;;;;;;4.10;1.88;;;;;;;;;;5043827;28;20166;-74
2022/09/09 12:39:54;;;;;;;3.38;1.80;;;;;;;;;;5046021;28;20296;-73
2022/09/09 12:42:20;;;;;;;3.35;1.88;;;;;;;;;;5047933;28;20193;-74
2022/09/09 12:44:55;;;;;;;4.53;2.08;;;;;;;;;;5046707;28;20546;-73
2022/09/09 12:47:23;;;;;;;4.82;1.80;;;;;;;;;;5046776;28;20200;-74
2022/09/09 12:49:49;;;;;;;3.63;1.67;;;;;;;;;;5043311;28;20202;-74
2022/09/09 12:52:20;;;;;;;7.15;2.85;;;;;;;;;;5045169;28;20255;-73
2022/09/09 12:54:46;;;;;;;3.92;1.60;;;;;;;;;;5046724;28;20264;-74
2022/09/09 12:57:12;;;;;;;3.15;1.88;;;;;;;;;;5052051;28;20219;-74
2022/09/09 12:59:39;;;;;;;2.60;1.50;;;;;;;;;;5045708;28;20205;-73
2022/09/09 13:02:19;;;;;;;4.25;1.83;;;;;;;;;;5049331;28;20170;-74
2022/09/09 13:04:44;;;;;;;3.40;1.63;;;;;;;;;;5045675;28;20559;-74
2022/09/09 13:07:11;;;;;;;3.92;1.52;;;;;;;;;;5050035;28;20181;-73
2022/09/09 13:09:37;;;;;;;4.07;1.73;;;;;;;;;;5047399;28;20221;-73
2022/09/09 13:12:05;;;;;;;3.63;1.83;;;;;;;;;;5044064;28;20189;-73
2022/09/09 13:14:32;;;;;;;5.63;2.53;;;;;;;;;;5045785;28;20188;-73
2022/09/09 13:17:03;;;;;;;4.85;2.05;;;;;;;;;;5045753;28;20280;-73
2022/09/09 13:19:31;;;;;;;5.90;2.05;;;;;;;;;;5043173;28;20197;-73
2022/09/09 13:21:57;;;;;;;3.75;2.30;;;;;;;;;;5047280;28;20188;-75
2022/09/09 13:24:29;;;;;;;4.65;2.03;;;;;;;;;;5047879;28;20174;-73
2022/09/09 13:26:56;;;;;;;4.97;2.20;;;;;;;;;;5044631;28;20694;-74
2022/09/09 13:29:21;;;;;;;6.30;1.92;;;;;;;;;;5049830;28;20216;-74
2022/09/09 13:31:47;;;;;;;5.80;2.42;;;;;;;;;;5046970;28;20655;-72
2022/09/09 13:34:13;;;;;;;3.35;2.05;;;;;;;;;;5049370;28;20189;-72
2022/09/09 13:36:40;;;;;;;4.18;2.78;;;;;;;;;;5047797;28;20228;-73
2022/09/09 13:39:15;;;;;;;3.92;2.58;;;;;;;;;;5044835;28;20580;-73
2022/09/09 13:41:44;;;;;;;3.53;2.20;;;;;;;;;;5051755;28;20216;-73
2022/09/09 13:44:35;;;;;;;4.63;2.53;;;;;;;;;;5053359;28;20559;-73
2022/09/09 13:47:00;;;;;;;4.13;2.42;;;;;;;;;;5051609;28;20224;-73
2022/09/09 13:49:28;;;;;;;3.57;2.60;;;;;;;;;;5048338;28;20222;-72
2022/09/09 13:52:02;;;;;;;6.75;3.63;;;;;;;;;;5055851;28;20427;-75
2022/09/09 13:54:27;;;;;;;5.90;3.58;;;;;;;;;;5049957;28;20203;-75
2022/09/09 13:56:53;;;;;;;3.60;2.17;;;;;;;;;;5053069;28;20182;-73
2022/09/09 13:59:24;;;;;;;6.95;3.13;;;;;;;;;;5052176;28;20205;-75
2022/09/09 14:01:49;;;;;;;6.50;3.25;;;;;;;;;;5045825;28;20574;-76
2022/09/09 14:04:15;;;;;;;5.97;2.80;;;;;;;;;;5064467;28;20219;-75
2022/09/09 14:06:41;;;;;;;5.65;4.40;;;;;;;;;;5045093;28;20704;-75
2022/09/09 14:09:06;;;;;;;3.50;3.03;;;;;;;;;;5045943;28;20206;-75
2022/09/09 14:11:32;;;;;;;4.10;3.08;;;;;;;;;;5049936;28;20371;-75
2022/09/09 14:13:57;;;;;;;2.92;2.45;;;;;;;;;;5046666;28;20229;-73
2022/09/09 14:16:22;;;;;;;8.18;2.70;;;;;;;;;;5050586;28;20265;-73
2022/09/09 14:18:47;;;;;;;6.90;2.72;;;;;;;;;;5049832;28;20402;-73
2022/09/09 14:21:14;;;;;;;5.03;2.92;;;;;;;;;;5050234;28;20682;-74
2022/09/09 14:23:40;;;;;;;2.92;2.13;;;;;;;;;;5064912;28;20742;-73
2022/09/09 14:26:05;;;;;;;2.97;1.35;;;;;;;;;;5049383;28;20597;-75
2022/09/09 14:28:31;;;;;;;1.35;1.00;;;;;;;;;;5051324;28;20189;-73
2022/09/09 14:30:58;;;;;;;2.03;1.30;;;;;;;;;;5048920;28;20194;-72
2022/09/09 14:33:24;;;;;;;2.97;1.50;;;;;;;;;;5049709;28;20186;-73
2022/09/09 14:35:55;;;;;;;1.40;1.10;;;;;;;;;;5050222;28;20188;-73
2022/09/09 14:38:20;;;;;;;2.35;0.85;;;;;;;;;;5046544;28;20686;-73
2022/09/09 14:40:46;;;;;;;1.23;0.70;;;;;;;;;;5057644;28;20209;-72
2022/09/09 14:43:12;;;;;;;1.42;0.93;;;;;;;;;;5053453;28;20421;-73
2022/09/09 14:45:37;;;;;;;1.17;0.90;;;;;;;;;;5049384;28;20223;-73
2022/09/09 14:48:03;;;;;;;2.35;1.17;;;;;;;;;;5045800;28;20612;-73
2022/09/09 14:50:28;;;;;;;1.83;1.10;;;;;;;;;;5042736;28;20364;-72
2022/09/09 14:52:53;;;;;;;3.50;1.65;;;;;;;;;;5050856;28;20180;-72